sensor_id;sensor_type;location;lat;lon;timestamp;pressure;altitude;pressure_sealevel;temperature;humidity
20710;BME280;10516;51.518;9.864;2024-02-21T00:02:05;99416.25;;;6.81;87.77
20710;BME280;10516;51.518;9.864;2024-02-21T00:04:30;99396.19;;;6.92;87.70
20710;BME280;10516;51.518;9.864;2024-02-21T00:06:56;99305.72;;;6.18;87.87
20710;BME280;10516;51.518;9.864;2024-02-21T00:09:21;99408.09;;;6.76;88.16
20710;BME280;10516;51.518;9.864;2024-02-21T00:11:47;99403.09;;;6.93;87.79
20710;BME280;10516;51.518;9.864;2024-02-21T00:14:13;99406.59;;;6.87;88.19
20710;BME280;10516;51.518;9.864;2024-02-21T00:16:38;99387.50;;;6.65;88.17
20710;BME280;10516;51.518;9.864;2024-02-21T00:19:04;99322.56;;;6.30;87.85
20710;BME280;10516;51.518;9.864;2024-02-21T00:21:29;99391.63;;;6.54;88.84
20710;BME280;10516;51.518;9.864;2024-02-21T00:23:55;99330.78;;;6.15;90.30
20710;BME280;10516;51.518;9.864;2024-02-21T00:26:21;99396.69;;;6.69;89.94
20710;BME280;10516;51.518;9.864;2024-02-21T00:28:46;99361.88;;;6.46;88.98
20710;BME280;10516;51.518;9.864;2024-02-21T00:31:11;99400.56;;;6.60;89.53
20710;BME280;10516;51.518;9.864;2024-02-21T00:33:37;99362.53;;;6.35;89.73
20710;BME280;10516;51.518;9.864;2024-02-21T00:36:02;99396.31;;;6.59;89.63
20710;BME280;10516;51.518;9.864;2024-02-21T00:38:28;99385.13;;;6.50;89.51
20710;BME280;10516;51.518;9.864;2024-02-21T00:40:54;99392.66;;;6.47;90.19
20710;BME280;10516;51.518;9.864;2024-02-21T00:43:19;99360.88;;;6.34;90.22
20710;BME280;10516;51.518;9.864;2024-02-21T00:45:48;99385.28;;;6.55;90.11
20710;BME280;10516;51.518;9.864;2024-02-21T00:48:14;99383.28;;;6.57;89.67
20710;BME280;10516;51.518;9.864;2024-02-21T00:50:39;99386.94;;;6.56;90.47
20710;BME280;10516;51.518;9.864;2024-02-21T00:53:05;99349.91;;;6.30;90.15
20710;BME280;10516;51.518;9.864;2024-02-21T00:55:30;99377.97;;;6.57;89.86
20710;BME280;10516;51.518;9.864;2024-02-21T00:57:56;99284.78;;;5.90;90.14
20710;BME280;10516;51.518;9.864;2024-02-21T01:00:21;99369.25;;;6.44;90.34
20710;BME280;10516;51.518;9.864;2024-02-21T01:02:47;99373.91;;;6.48;90.33
20710;BME280;10516;51.518;9.864;2024-02-21T01:05:12;99358.44;;;6.39;90.49
20710;BME280;10516;51.518;9.864;2024-02-21T01:07:38;99342.75;;;6.37;90.50
20710;BME280;10516;51.518;9.864;2024-02-21T01:10:04;99356.34;;;6.54;89.80
20710;BME280;10516;51.518;9.864;2024-02-21T01:12:29;99366.94;;;6.54;89.83
20710;BME280;10516;51.518;9.864;2024-02-21T01:14:55;99355.16;;;6.43;90.10
20710;BME280;10516;51.518;9.864;2024-02-21T01:17:20;99356.53;;;6.59;89.70
20710;BME280;10516;51.518;9.864;2024-02-21T01:19:46;99230.41;;;5.74;90.37
20710;BME280;10516;51.518;9.864;2024-02-21T01:22:12;99352.25;;;6.58;89.92
20710;BME280;10516;51.518;9.864;2024-02-21T01:24:37;99291.22;;;6.20;89.86
20710;BME280;10516;51.518;9.864;2024-02-21T01:27:03;99251.72;;;6.05;89.74
20710;BME280;10516;51.518;9.864;2024-02-21T01:29:28;99253.38;;;6.00;90.41
20710;BME280;10516;51.518;9.864;2024-02-21T01:31:53;99314.75;;;6.48;89.87
20710;BME280;10516;51.518;9.864;2024-02-21T01:34:19;99272.66;;;6.27;89.45
20710;BME280;10516;51.518;9.864;2024-02-21T01:36:44;99261.91;;;6.09;90.28
20710;BME280;10516;51.518;9.864;2024-02-21T01:39:09;99323.94;;;6.45;90.96
20710;BME280;10516;51.518;9.864;2024-02-21T01:41:35;99306.66;;;6.30;91.03
20710;BME280;10516;51.518;9.864;2024-02-21T01:44:00;99334.28;;;6.60;90.26
20710;BME280;10516;51.518;9.864;2024-02-21T01:46:26;99310.88;;;6.50;89.73
20710;BME280;10516;51.518;9.864;2024-02-21T01:48:55;99317.41;;;6.48;90.77
20710;BME280;10516;51.518;9.864;2024-02-21T01:51:21;99321.84;;;6.60;89.93
20710;BME280;10516;51.518;9.864;2024-02-21T01:53:46;99322.63;;;6.67;89.64
20710;BME280;10516;51.518;9.864;2024-02-21T01:56:12;99251.94;;;6.04;89.14
20710;BME280;10516;51.518;9.864;2024-02-21T01:58:39;99250.84;;;6.18;90.50
20710;BME280;10516;51.518;9.864;2024-02-21T02:01:06;99245.03;;;6.41;89.49
20710;BME280;10516;51.518;9.864;2024-02-21T02:03:31;99275.91;;;6.66;89.65
20710;BME280;10516;51.518;9.864;2024-02-21T02:05:57;99309.75;;;6.71;89.73
20710;BME280;10516;51.518;9.864;2024-02-21T02:08:22;99279.16;;;6.31;89.66
20710;BME280;10516;51.518;9.864;2024-02-21T02:10:48;99294.97;;;6.50;90.00
20710;BME280;10516;51.518;9.864;2024-02-21T02:13:14;99303.59;;;6.33;90.25
20710;BME280;10516;51.518;9.864;2024-02-21T02:15:44;99299.09;;;6.40;91.07
20710;BME280;10516;51.518;9.864;2024-02-21T02:18:11;99265.00;;;6.43;89.72
20710;BME280;10516;51.518;9.864;2024-02-21T02:20:37;99295.34;;;6.54;90.12
20710;BME280;10516;51.518;9.864;2024-02-21T02:23:29;99270.28;;;6.50;90.68
20710;BME280;10516;51.518;9.864;2024-02-21T02:25:54;99290.56;;;6.69;90.31
20710;BME280;10516;51.518;9.864;2024-02-21T02:28:21;99281.97;;;6.73;89.60
20710;BME280;10516;51.518;9.864;2024-02-21T02:30:46;99267.94;;;6.29;90.96
20710;BME280;10516;51.518;9.864;2024-02-21T02:33:12;99268.53;;;6.68;89.39
20710;BME280;10516;51.518;9.864;2024-02-21T02:35:38;99197.69;;;6.13;88.99
20710;BME280;10516;51.518;9.864;2024-02-21T02:38:04;99245.78;;;6.54;90.58
20710;BME280;10516;51.518;9.864;2024-02-21T02:40:30;99263.75;;;6.52;91.21
20710;BME280;10516;51.518;9.864;2024-02-21T02:42:56;99233.19;;;6.43;90.05
20710;BME280;10516;51.518;9.864;2024-02-21T02:45:22;99257.81;;;6.57;90.30
20710;BME280;10516;51.518;9.864;2024-02-21T02:47:55;99220.16;;;6.42;90.63
20710;BME280;10516;51.518;9.864;2024-02-21T02:50:26;99223.50;;;6.62;90.35
20710;BME280;10516;51.518;9.864;2024-02-21T02:52:52;99240.81;;;6.64;89.31
20710;BME280;10516;51.518;9.864;2024-02-21T02:55:17;99217.63;;;6.53;89.37
20710;BME280;10516;51.518;9.864;2024-02-21T02:57:43;99232.56;;;6.48;91.48
20710;BME280;10516;51.518;9.864;2024-02-21T03:00:10;99226.41;;;6.54;90.88
20710;BME280;10516;51.518;9.864;2024-02-21T03:02:37;99213.63;;;6.44;90.77
20710;BME280;10516;51.518;9.864;2024-02-21T03:05:12;99201.56;;;6.48;90.25
20710;BME280;10516;51.518;9.864;2024-02-21T03:07:38;99230.31;;;6.45;89.99
20710;BME280;10516;51.518;9.864;2024-02-21T03:10:04;99228.47;;;6.52;91.03
20710;BME280;10516;51.518;9.864;2024-02-21T03:12:29;99170.59;;;6.11;90.70
20710;BME280;10516;51.518;9.864;2024-02-21T03:14:55;99185.38;;;6.25;90.75
20710;BME280;10516;51.518;9.864;2024-02-21T03:17:21;99185.09;;;6.40;89.94
20710;BME280;10516;51.518;9.864;2024-02-21T03:19:46;99135.09;;;6.12;90.61
20710;BME280;10516;51.518;9.864;2024-02-21T03:22:13;99185.06;;;6.46;90.58
20710;BME280;10516;51.518;9.864;2024-02-21T03:24:39;99211.47;;;6.66;90.28
20710;BME280;10516;51.518;9.864;2024-02-21T03:27:04;99187.78;;;6.64;90.58
20710;BME280;10516;51.518;9.864;2024-02-21T03:29:29;99215.53;;;6.62;89.75
20710;BME280;10516;51.518;9.864;2024-02-21T03:31:55;99188.41;;;6.35;90.69
20710;BME280;10516;51.518;9.864;2024-02-21T03:34:20;99124.41;;;5.94;90.18
20710;BME280;10516;51.518;9.864;2024-02-21T03:36:46;99190.03;;;6.30;91.63
20710;BME280;10516;51.518;9.864;2024-02-21T03:39:11;99216.28;;;6.44;90.40
20710;BME280;10516;51.518;9.864;2024-02-21T03:41:37;99163.63;;;6.48;89.94
20710;BME280;10516;51.518;9.864;2024-02-21T03:44:02;99210.50;;;6.54;90.37
20710;BME280;10516;51.518;9.864;2024-02-21T03:46:28;99218.31;;;6.73;90.33
20710;BME280;10516;51.518;9.864;2024-02-21T03:48:53;99224.13;;;6.64;89.40
20710;BME280;10516;51.518;9.864;2024-02-21T03:51:18;99197.47;;;6.52;90.87
20710;BME280;10516;51.518;9.864;2024-02-21T03:53:44;99224.19;;;6.51;90.54
20710;BME280;10516;51.518;9.864;2024-02-21T03:56:09;99192.75;;;6.54;90.95
20710;BME280;10516;51.518;9.864;2024-02-21T03:58:35;99207.16;;;6.65;90.16
20710;BME280;10516;51.518;9.864;2024-02-21T04:01:01;99207.97;;;6.65;90.59
20710;BME280;10516;51.518;9.864;2024-02-21T04:03:27;99150.09;;;5.93;91.36
20710;BME280;10516;51.518;9.864;2024-02-21T04:05:52;99188.63;;;6.27;91.99
20710;BME280;10516;51.518;9.864;2024-02-21T04:08:18;99189.06;;;6.24;92.06
20710;BME280;10516;51.518;9.864;2024-02-21T04:10:43;99187.13;;;6.69;91.25
20710;BME280;10516;51.518;9.864;2024-02-21T04:13:09;99187.19;;;6.62;91.16
20710;BME280;10516;51.518;9.864;2024-02-21T04:15:34;99187.72;;;6.46;91.47
20710;BME280;10516;51.518;9.864;2024-02-21T04:18:00;99175.44;;;6.52;90.52
20710;BME280;10516;51.518;9.864;2024-02-21T04:20:26;99135.94;;;6.44;90.65
20710;BME280;10516;51.518;9.864;2024-02-21T04:22:51;99069.38;;;5.96;91.71
20710;BME280;10516;51.518;9.864;2024-02-21T04:25:16;99156.91;;;6.45;90.72
20710;BME280;10516;51.518;9.864;2024-02-21T04:27:42;99132.13;;;6.33;92.28
20710;BME280;10516;51.518;9.864;2024-02-21T04:30:08;99156.69;;;6.47;91.13
20710;BME280;10516;51.518;9.864;2024-02-21T04:32:34;99156.44;;;6.55;91.27
20710;BME280;10516;51.518;9.864;2024-02-21T04:35:00;99159.53;;;6.52;91.69
20710;BME280;10516;51.518;9.864;2024-02-21T04:37:25;99126.69;;;6.53;90.85
20710;BME280;10516;51.518;9.864;2024-02-21T04:39:51;99155.59;;;6.61;90.72
20710;BME280;10516;51.518;9.864;2024-02-21T04:42:16;99134.88;;;6.45;90.20
20710;BME280;10516;51.518;9.864;2024-02-21T04:44:42;99133.19;;;6.57;89.84
20710;BME280;10516;51.518;9.864;2024-02-21T04:47:08;99158.19;;;6.67;89.73
20710;BME280;10516;51.518;9.864;2024-02-21T04:49:34;99162.53;;;6.55;90.97
20710;BME280;10516;51.518;9.864;2024-02-21T04:52:01;99159.47;;;6.58;91.28
20710;BME280;10516;51.518;9.864;2024-02-21T04:54:26;99157.91;;;6.51;90.61
20710;BME280;10516;51.518;9.864;2024-02-21T04:56:51;99144.72;;;6.38;91.29
20710;BME280;10516;51.518;9.864;2024-02-21T04:59:17;99149.00;;;6.39;91.01
20710;BME280;10516;51.518;9.864;2024-02-21T05:01:42;99144.66;;;6.51;91.21
20710;BME280;10516;51.518;9.864;2024-02-21T05:04:08;99117.31;;;6.19;91.81
20710;BME280;10516;51.518;9.864;2024-02-21T05:06:41;99138.22;;;6.34;91.04
20710;BME280;10516;51.518;9.864;2024-02-21T05:09:07;99109.97;;;6.21;90.97
20710;BME280;10516;51.518;9.864;2024-02-21T05:11:36;99107.03;;;6.04;90.89
20710;BME280;10516;51.518;9.864;2024-02-21T05:14:03;99081.81;;;5.95;91.39
20710;BME280;10516;51.518;9.864;2024-02-21T05:16:29;99144.75;;;6.31;90.34
20710;BME280;10516;51.518;9.864;2024-02-21T05:18:55;99102.31;;;6.07;91.39
20710;BME280;10516;51.518;9.864;2024-02-21T05:21:23;99120.94;;;6.25;90.89
20710;BME280;10516;51.518;9.864;2024-02-21T05:23:49;99148.41;;;6.37;90.56
20710;BME280;10516;51.518;9.864;2024-02-21T05:26:21;99139.25;;;6.33;91.31
20710;BME280;10516;51.518;9.864;2024-02-21T05:28:47;99133.41;;;6.24;90.61
20710;BME280;10516;51.518;9.864;2024-02-21T05:31:13;99183.72;;;6.62;89.84
20710;BME280;10516;51.518;9.864;2024-02-21T05:33:39;99171.31;;;6.56;90.59
20710;BME280;10516;51.518;9.864;2024-02-21T05:36:05;99060.47;;;5.84;90.13
20710;BME280;10516;51.518;9.864;2024-02-21T05:38:30;99172.56;;;6.53;90.06
20710;BME280;10516;51.518;9.864;2024-02-21T05:40:56;99177.50;;;6.12;90.19
20710;BME280;10516;51.518;9.864;2024-02-21T05:43:22;99155.69;;;6.10;91.65
20710;BME280;10516;51.518;9.864;2024-02-21T05:45:47;99186.63;;;6.54;90.05
20710;BME280;10516;51.518;9.864;2024-02-21T05:48:13;99192.44;;;6.69;90.09
20710;BME280;10516;51.518;9.864;2024-02-21T05:50:39;99143.78;;;6.26;90.31
20710;BME280;10516;51.518;9.864;2024-02-21T05:53:04;99165.59;;;6.28;90.37
20710;BME280;10516;51.518;9.864;2024-02-21T05:55:30;99196.28;;;6.48;89.83
20710;BME280;10516;51.518;9.864;2024-02-21T05:57:55;99183.75;;;6.55;89.92
20710;BME280;10516;51.518;9.864;2024-02-21T06:00:21;99188.38;;;6.66;89.73
20710;BME280;10516;51.518;9.864;2024-02-21T06:02:46;99183.53;;;6.63;90.40
20710;BME280;10516;51.518;9.864;2024-02-21T06:05:12;99107.44;;;6.01;89.66
20710;BME280;10516;51.518;9.864;2024-02-21T06:07:38;99189.88;;;6.56;90.01
20710;BME280;10516;51.518;9.864;2024-02-21T06:10:05;99153.94;;;6.35;90.12
20710;BME280;10516;51.518;9.864;2024-02-21T06:12:37;99127.38;;;6.11;90.85
20710;BME280;10516;51.518;9.864;2024-02-21T06:15:03;99162.63;;;6.42;91.03
20710;BME280;10516;51.518;9.864;2024-02-21T06:17:28;99154.22;;;6.52;89.86
20710;BME280;10516;51.518;9.864;2024-02-21T06:19:54;99140.13;;;6.27;90.48
20710;BME280;10516;51.518;9.864;2024-02-21T06:22:19;99155.44;;;6.49;89.92
20710;BME280;10516;51.518;9.864;2024-02-21T06:24:45;99155.22;;;6.57;89.30
20710;BME280;10516;51.518;9.864;2024-02-21T06:27:11;99056.19;;;6.14;88.70
20710;BME280;10516;51.518;9.864;2024-02-21T06:29:37;99136.97;;;6.67;89.23
20710;BME280;10516;51.518;9.864;2024-02-21T06:32:03;99141.91;;;6.64;89.49
20710;BME280;10516;51.518;9.864;2024-02-21T06:34:28;99078.03;;;6.10;89.28
20710;BME280;10516;51.518;9.864;2024-02-21T06:36:54;99141.81;;;6.46;90.14
20710;BME280;10516;51.518;9.864;2024-02-21T06:39:19;99061.53;;;6.07;89.34
20710;BME280;10516;51.518;9.864;2024-02-21T06:41:44;99121.81;;;6.50;90.23
20710;BME280;10516;51.518;9.864;2024-02-21T06:44:10;99052.63;;;6.02;89.88
20710;BME280;10516;51.518;9.864;2024-02-21T06:46:35;99115.56;;;6.38;90.37
20710;BME280;10516;51.518;9.864;2024-02-21T06:49:02;99113.56;;;6.33;90.79
20710;BME280;10516;51.518;9.864;2024-02-21T06:51:30;99110.06;;;6.39;89.78
20710;BME280;10516;51.518;9.864;2024-02-21T06:53:55;99105.78;;;6.38;90.38
20710;BME280;10516;51.518;9.864;2024-02-21T06:56:24;99101.56;;;6.31;89.74
20710;BME280;10516;51.518;9.864;2024-02-21T06:58:56;99095.72;;;6.22;90.31
20710;BME280;10516;51.518;9.864;2024-02-21T07:01:22;99112.94;;;6.31;90.30
20710;BME280;10516;51.518;9.864;2024-02-21T07:03:48;99078.84;;;6.10;90.24
20710;BME280;10516;51.518;9.864;2024-02-21T07:06:13;99115.41;;;6.33;90.44
20710;BME280;10516;51.518;9.864;2024-02-21T07:08:38;99071.59;;;5.99;90.27
20710;BME280;10516;51.518;9.864;2024-02-21T07:11:04;99055.13;;;5.90;90.42
20710;BME280;10516;51.518;9.864;2024-02-21T07:13:30;99113.00;;;6.25;90.76
20710;BME280;10516;51.518;9.864;2024-02-21T07:15:55;99075.19;;;6.11;90.49
20710;BME280;10516;51.518;9.864;2024-02-21T07:18:21;99082.19;;;6.30;89.86
20710;BME280;10516;51.518;9.864;2024-02-21T07:20:46;99112.53;;;6.34;89.71
20710;BME280;10516;51.518;9.864;2024-02-21T07:23:11;99006.06;;;5.81;89.76
20710;BME280;10516;51.518;9.864;2024-02-21T07:25:37;99066.09;;;6.25;89.40
20710;BME280;10516;51.518;9.864;2024-02-21T07:28:02;99086.56;;;6.43;89.08
20710;BME280;10516;51.518;9.864;2024-02-21T07:30:28;99032.09;;;6.22;89.42
20710;BME280;10516;51.518;9.864;2024-02-21T07:32:53;99078.50;;;6.56;88.15
20710;BME280;10516;51.518;9.864;2024-02-21T07:35:19;99078.50;;;6.56;88.57
20710;BME280;10516;51.518;9.864;2024-02-21T07:37:44;99066.41;;;6.42;89.36
20710;BME280;10516;51.518;9.864;2024-02-21T07:40:13;99064.53;;;6.42;89.51
20710;BME280;10516;51.518;9.864;2024-02-21T07:42:40;99045.31;;;6.29;89.25
20710;BME280;10516;51.518;9.864;2024-02-21T07:45:07;99029.66;;;6.21;89.88
20710;BME280;10516;51.518;9.864;2024-02-21T07:47:32;99066.41;;;6.42;89.58
20710;BME280;10516;51.518;9.864;2024-02-21T07:49:58;99066.81;;;6.39;89.61
20710;BME280;10516;51.518;9.864;2024-02-21T07:52:23;99059.56;;;6.28;89.48
20710;BME280;10516;51.518;9.864;2024-02-21T07:54:49;99060.63;;;6.27;89.67
20710;BME280;10516;51.518;9.864;2024-02-21T07:57:15;98964.38;;;5.70;89.17
20710;BME280;10516;51.518;9.864;2024-02-21T07:59:40;98981.84;;;5.78;89.00
20710;BME280;10516;51.518;9.864;2024-02-21T08:02:05;99067.41;;;6.41;89.45
20710;BME280;10516;51.518;9.864;2024-02-21T08:04:32;99060.03;;;6.18;89.74
20710;BME280;10516;51.518;9.864;2024-02-21T08:06:58;98977.19;;;5.73;89.24
20710;BME280;10516;51.518;9.864;2024-02-21T08:09:28;99052.09;;;6.18;90.06
20710;BME280;10516;51.518;9.864;2024-02-21T08:11:54;99083.38;;;6.34;89.07
20710;BME280;10516;51.518;9.864;2024-02-21T08:14:20;99075.19;;;6.36;89.41
20710;BME280;10516;51.518;9.864;2024-02-21T08:16:45;99074.59;;;6.34;89.42
20710;BME280;10516;51.518;9.864;2024-02-21T08:19:11;99068.56;;;6.27;89.30
20710;BME280;10516;51.518;9.864;2024-02-21T08:21:36;99027.97;;;6.01;89.37
20710;BME280;10516;51.518;9.864;2024-02-21T08:24:02;99040.34;;;6.07;88.55
20710;BME280;10516;51.518;9.864;2024-02-21T08:26:27;99014.06;;;6.06;88.62
20710;BME280;10516;51.518;9.864;2024-02-21T08:28:55;99051.84;;;6.26;88.50
20710;BME280;10516;51.518;9.864;2024-02-21T08:31:24;99034.03;;;6.09;88.38
20710;BME280;10516;51.518;9.864;2024-02-21T08:33:53;99073.13;;;6.38;88.57
20710;BME280;10516;51.518;9.864;2024-02-21T08:36:20;99072.88;;;6.46;88.27
20710;BME280;10516;51.518;9.864;2024-02-21T08:38:45;99048.91;;;6.34;88.57
20710;BME280;10516;51.518;9.864;2024-02-21T08:41:11;99041.56;;;6.36;88.25
20710;BME280;10516;51.518;9.864;2024-02-21T08:43:37;99037.34;;;6.29;87.97
20710;BME280;10516;51.518;9.864;2024-02-21T08:46:03;99047.09;;;6.35;88.69
20710;BME280;10516;51.518;9.864;2024-02-21T08:48:28;99047.69;;;6.37;88.54
20710;BME280;10516;51.518;9.864;2024-02-21T08:50:54;99048.25;;;6.39;88.73
20710;BME280;10516;51.518;9.864;2024-02-21T08:53:20;99025.97;;;6.22;89.01
20710;BME280;10516;51.518;9.864;2024-02-21T08:55:45;99039.44;;;6.45;88.12
20710;BME280;10516;51.518;9.864;2024-02-21T08:58:11;99003.25;;;6.32;87.82
20710;BME280;10516;51.518;9.864;2024-02-21T09:00:36;99024.56;;;6.44;87.69
20710;BME280;10516;51.518;9.864;2024-02-21T09:03:02;99024.19;;;6.40;88.34
20710;BME280;10516;51.518;9.864;2024-02-21T09:05:28;99026.28;;;6.32;87.95
20710;BME280;10516;51.518;9.864;2024-02-21T09:07:53;98999.59;;;6.33;87.97
20710;BME280;10516;51.518;9.864;2024-02-21T09:10:20;99031.31;;;6.64;87.73
20710;BME280;10516;51.518;9.864;2024-02-21T09:12:45;99032.13;;;6.65;88.10
20710;BME280;10516;51.518;9.864;2024-02-21T09:15:11;99011.13;;;6.63;87.38
20710;BME280;10516;51.518;9.864;2024-02-21T09:17:36;99025.34;;;6.69;87.14
20710;BME280;10516;51.518;9.864;2024-02-21T09:20:02;99022.44;;;6.77;86.69
20710;BME280;10516;51.518;9.864;2024-02-21T09:22:29;99010.09;;;6.64;86.59
20710;BME280;10516;51.518;9.864;2024-02-21T09:24:54;98998.44;;;6.47;87.82
20710;BME280;10516;51.518;9.864;2024-02-21T09:27:20;99014.53;;;6.70;86.65
20710;BME280;10516;51.518;9.864;2024-02-21T09:29:46;99011.22;;;6.93;86.26
20710;BME280;10516;51.518;9.864;2024-02-21T09:32:11;99021.69;;;6.88;86.17
20710;BME280;10516;51.518;9.864;2024-02-21T09:34:37;98982.56;;;6.84;85.76
20710;BME280;10516;51.518;9.864;2024-02-21T09:37:03;98991.38;;;6.77;85.36
20710;BME280;10516;51.518;9.864;2024-02-21T09:39:28;98968.25;;;6.66;85.48
20710;BME280;10516;51.518;9.864;2024-02-21T09:41:59;98917.72;;;6.43;84.93
20710;BME280;10516;51.518;9.864;2024-02-21T09:44:27;99013.16;;;7.04;85.21
20710;BME280;10516;51.518;9.864;2024-02-21T09:47:02;98999.13;;;6.97;85.07
20710;BME280;10516;51.518;9.864;2024-02-21T09:49:34;98940.78;;;6.79;84.60
20710;BME280;10516;51.518;9.864;2024-02-21T09:52:04;98998.47;;;7.20;84.25
20710;BME280;10516;51.518;9.864;2024-02-21T09:54:30;99006.78;;;7.23;84.34
20710;BME280;10516;51.518;9.864;2024-02-21T09:57:03;98992.84;;;7.28;83.86
20710;BME280;10516;51.518;9.864;2024-02-21T09:59:32;98968.25;;;7.03;84.04
20710;BME280;10516;51.518;9.864;2024-02-21T10:01:57;99002.78;;;7.32;83.83
20710;BME280;10516;51.518;9.864;2024-02-21T10:04:25;99006.63;;;7.36;84.20
20710;BME280;10516;51.518;9.864;2024-02-21T10:06:51;98977.75;;;7.10;84.38
20710;BME280;10516;51.518;9.864;2024-02-21T10:09:20;98983.94;;;7.22;82.93
20710;BME280;10516;51.518;9.864;2024-02-21T10:11:46;98987.34;;;7.29;83.49
20710;BME280;10516;51.518;9.864;2024-02-21T10:14:11;98984.72;;;7.41;82.63
20710;BME280;10516;51.518;9.864;2024-02-21T10:16:37;98972.66;;;7.27;83.64
20710;BME280;10516;51.518;9.864;2024-02-21T10:19:02;98985.38;;;7.36;83.27
20710;BME280;10516;51.518;9.864;2024-02-21T10:21:28;98998.47;;;7.49;83.49
20710;BME280;10516;51.518;9.864;2024-02-21T10:23:54;98999.72;;;7.35;83.43
20710;BME280;10516;51.518;9.864;2024-02-21T10:26:20;98983.88;;;7.40;82.88
20710;BME280;10516;51.518;9.864;2024-02-21T10:28:49;98972.66;;;7.56;82.79
20710;BME280;10516;51.518;9.864;2024-02-21T10:31:27;98992.16;;;7.50;82.77
20710;BME280;10516;51.518;9.864;2024-02-21T10:34:02;98985.13;;;7.56;82.87
20710;BME280;10516;51.518;9.864;2024-02-21T10:36:28;98979.72;;;7.63;82.89
20710;BME280;10516;51.518;9.864;2024-02-21T10:38:54;98933.03;;;7.55;82.02
20710;BME280;10516;51.518;9.864;2024-02-21T10:41:21;98957.81;;;7.79;82.32
20710;BME280;10516;51.518;9.864;2024-02-21T10:43:50;98958.25;;;7.76;81.89
20710;BME280;10516;51.518;9.864;2024-02-21T10:46:19;98950.91;;;7.89;82.18
20710;BME280;10516;51.518;9.864;2024-02-21T10:48:46;98938.91;;;7.98;80.77
20710;BME280;10516;51.518;9.864;2024-02-21T10:51:17;98951.28;;;7.93;81.33
20710;BME280;10516;51.518;9.864;2024-02-21T10:53:57;98951.50;;;8.03;81.30
20710;BME280;10516;51.518;9.864;2024-02-21T10:56:34;98932.88;;;7.80;81.04
20710;BME280;10516;51.518;9.864;2024-02-21T10:59:06;98928.25;;;7.87;81.79
20710;BME280;10516;51.518;9.864;2024-02-21T11:01:31;98867.78;;;7.36;81.15
20710;BME280;10516;51.518;9.864;2024-02-21T11:03:59;98891.47;;;7.61;81.03
20710;BME280;10516;51.518;9.864;2024-02-21T11:06:26;98901.31;;;7.72;81.50
20710;BME280;10516;51.518;9.864;2024-02-21T11:09:08;98896.00;;;7.72;80.78
20710;BME280;10516;51.518;9.864;2024-02-21T11:11:34;98880.94;;;7.54;80.82
20710;BME280;10516;51.518;9.864;2024-02-21T11:14:28;98907.13;;;7.92;80.30
20710;BME280;10516;51.518;9.864;2024-02-21T11:16:55;98879.97;;;7.90;81.02
20710;BME280;10516;51.518;9.864;2024-02-21T11:19:27;98877.66;;;8.05;80.15
20710;BME280;10516;51.518;9.864;2024-02-21T11:21:55;98853.97;;;7.92;80.27
20710;BME280;10516;51.518;9.864;2024-02-21T11:24:31;98887.53;;;8.27;80.21
20710;BME280;10516;51.518;9.864;2024-02-21T11:29:49;98866.00;;;8.06;80.10
20710;BME280;10516;51.518;9.864;2024-02-21T11:32:20;98864.72;;;8.08;79.79
20710;BME280;10516;51.518;9.864;2024-02-21T11:35:01;98859.84;;;8.17;79.62
20710;BME280;10516;51.518;9.864;2024-02-21T11:37:29;98863.44;;;8.11;79.97
20710;BME280;10516;51.518;9.864;2024-02-21T11:39:56;98849.56;;;8.09;79.76
20710;BME280;10516;51.518;9.864;2024-02-21T11:42:21;98815.38;;;7.89;79.71
20710;BME280;10516;51.518;9.864;2024-02-21T11:44:48;98821.97;;;7.98;79.27
20710;BME280;10516;51.518;9.864;2024-02-21T11:47:14;98795.97;;;7.89;79.91
20710;BME280;10516;51.518;9.864;2024-02-21T11:49:44;98839.66;;;8.27;78.77
20710;BME280;10516;51.518;9.864;2024-02-21T11:52:11;98841.84;;;8.30;78.56
20710;BME280;10516;51.518;9.864;2024-02-21T11:54:36;98823.44;;;8.41;78.45
20710;BME280;10516;51.518;9.864;2024-02-21T11:57:02;98827.00;;;8.58;78.43
20710;BME280;10516;51.518;9.864;2024-02-21T11:59:32;98797.28;;;8.49;77.95
20710;BME280;10516;51.518;9.864;2024-02-21T12:02:02;98790.16;;;8.38;77.96
20710;BME280;10516;51.518;9.864;2024-02-21T12:04:31;98789.47;;;8.31;77.65
20710;BME280;10516;51.518;9.864;2024-02-21T12:06:57;98769.94;;;8.14;77.59
20710;BME280;10516;51.518;9.864;2024-02-21T12:09:26;98806.78;;;8.22;77.86
20710;BME280;10516;51.518;9.864;2024-02-21T12:11:59;98803.78;;;8.30;77.67
20710;BME280;10516;51.518;9.864;2024-02-21T12:14:26;98801.50;;;8.34;78.17
20710;BME280;10516;51.518;9.864;2024-02-21T12:16:51;98774.44;;;8.25;77.89
20710;BME280;10516;51.518;9.864;2024-02-21T12:19:17;98768.44;;;8.18;77.06
20710;BME280;10516;51.518;9.864;2024-02-21T12:21:43;98781.47;;;8.19;78.05
20710;BME280;10516;51.518;9.864;2024-02-21T12:26:39;98767.50;;;8.24;78.08
20710;BME280;10516;51.518;9.864;2024-02-21T12:29:05;98769.69;;;8.39;78.11
20710;BME280;10516;51.518;9.864;2024-02-21T12:31:30;98733.56;;;8.14;77.80
20710;BME280;10516;51.518;9.864;2024-02-21T12:33:56;98746.59;;;8.16;78.07
20710;BME280;10516;51.518;9.864;2024-02-21T12:36:22;98758.81;;;8.17;78.28
20710;BME280;10516;51.518;9.864;2024-02-21T12:38:47;98769.38;;;8.12;78.48
20710;BME280;10516;51.518;9.864;2024-02-21T12:41:14;98724.78;;;8.02;78.51
20710;BME280;10516;51.518;9.864;2024-02-21T12:43:40;98715.72;;;8.15;78.35
20710;BME280;10516;51.518;9.864;2024-02-21T12:46:05;98732.88;;;8.47;77.32
20710;BME280;10516;51.518;9.864;2024-02-21T12:48:33;98737.09;;;8.20;79.19
20710;BME280;10516;51.518;9.864;2024-02-21T12:50:58;98713.78;;;8.10;79.53
20710;BME280;10516;51.518;9.864;2024-02-21T12:53:24;98704.53;;;8.13;79.07
20710;BME280;10516;51.518;9.864;2024-02-21T12:55:50;98745.53;;;8.17;78.96
20710;BME280;10516;51.518;9.864;2024-02-21T12:58:15;98751.91;;;8.16;78.46
20710;BME280;10516;51.518;9.864;2024-02-21T13:00:41;98735.38;;;8.14;78.43
20710;BME280;10516;51.518;9.864;2024-02-21T13:03:07;98693.25;;;7.94;79.03
20710;BME280;10516;51.518;9.864;2024-02-21T13:05:32;98735.38;;;8.14;79.42
20710;BME280;10516;51.518;9.864;2024-02-21T13:07:58;98701.28;;;8.11;79.27
20710;BME280;10516;51.518;9.864;2024-02-21T13:10:24;98695.69;;;7.96;79.37
20710;BME280;10516;51.518;9.864;2024-02-21T13:12:50;98689.38;;;8.13;78.83